Data for 03/08/2014

Time Sea-Level Adjusted Pressure Absolute Pressure Temperature Relative Humidity Dew Point   
(mb) (inHg) (mb) (inHg) (C) (F) (%) (C) (F)
00:05 1024 30.24 853 25.19 1.8 35.3 61 -4.9 23.1
00:10 1024 30.24 853 25.19 1.9 35.4 62 -4.7 23.6
00:15 1024 30.24 853 25.19 1.7 35.1 62 -4.7 23.5
00:20 1024 30.24 853 25.19 1.8 35.3 61 -4.9 23.1
00:25 1024 30.24 853 25.19 2 35.6 60 -4.9 23.2
00:30 1024 30.24 853 25.19 2 35.6 60 -4.9 23.1
00:35 1024 30.24 853 25.19 2 35.6 60 -4.9 23.2
00:40 1024 30.24 853 25.19 1.9 35.3 61 -5 23.1
00:45 1024 30.24 853 25.19 1.6 34.8 63 -4.7 23.5
00:50 1024 30.24 853 25.19 1.3 34.3 64 -4.7 23.5
00:55 1024 30.24 853 25.19 1.1 34 64 -5 23
01:00 1024 30.24 853 25.19 1.5 34.7 62 -5.1 22.8
01:05 1024 30.24 853 25.19 1.7 35.1 62 -4.9 23.2
01:10 1024 30.24 853 25.19 1.5 34.8 62 -4.9 23.1
01:15 1024 30.24 853 25.19 1.5 34.8 62 -4.9 23.1
01:20 1024 30.24 853 25.19 1.6 35 62 -4.9 23.1
01:25 1024 30.24 853 25.19 1.7 35 62 -4.9 23.1
01:30 1024 30.24 853 25.19 1.6 35 62 -4.8 23.4
01:35 1024 30.24 853 25.19 1.2 34.1 65 -4.8 23.4
01:40 1024 30.24 853 25.19 0.8 33.5 65 -5 22.9
01:45 1024 30.24 853 25.19 0.9 33.6 65 -5 23.1
01:50 1024 30.24 853 25.19 0.7 33.3 67 -4.8 23.3
01:55 1024 30.24 853 25.19 0.4 32.7 69 -4.7 23.5
02:00 1024 30.24 853 25.19 0.2 32.4 69 -4.9 23.2
02:05 1024 30.24 853 25.19 0.1 32.2 69 -5 23
02:10 1024 30.24 853 25.19 0.2 32.3 68 -5 22.9
02:15 1024 30.24 853 25.19 0.1 32.2 69 -4.9 23.1
02:20 1024 30.24 853 25.19 0.1 32.1 69 -4.9 23.2
02:25 1024 30.24 853 25.19 -0.3 31.5 71 -5 23.1
02:30 1024 30.24 853 25.19 -0.4 31.3 71 -5.1 22.8
02:35 1024 30.24 853 25.19 -0.4 31.4 70 -5.1 22.8
02:40 1024 30.24 853 25.19 -0.2 31.6 70 -5.1 22.8
02:45 1024 30.24 853 25.19 -0 31.9 70 -4.9 23.2
02:50 1024 30.24 853 25.19 0.2 32.4 70 -4.5 23.8
02:55 1024 30.24 853 25.19 0.2 32.3 71 -4.5 23.9
03:00 1024 30.24 853 25.19 -0 31.9 71 -4.6 23.7
03:05 1024 30.24 853 25.19 0.1 32.2 70 -4.7 23.6
03:10 1024 30.24 853 25.19 0.1 32.2 72 -4.4 24.1
03:15 1024 30.24 853 25.19 -0.1 31.9 73 -4.4 24.1
03:20 1024 30.24 853 25.19 -0.1 31.7 74 -4.2 24.5
03:25 1024 30.24 853 25.19 -0.2 31.6 73 -4.5 23.8
03:30 1024 30.24 853 25.19 -0.6 30.8 75 -4.6 23.8
03:35 1024 30.24 853 25.19 -0.5 31.2 72 -4.9 23.3
03:40 1024 30.24 853 25.19 -0.6 30.9 73 -4.8 23.3
03:45 1024 30.24 853 25.19 -1.6 29.2 77 -5.1 22.8
03:50 1024 30.24 853 25.19 -1.9 28.6 77 -5.4 22.3
03:55 1024 30.24 853 25.19 -1.9 28.5 79 -5.1 22.7
04:00 1024 30.24 853 25.19 -1.7 29 78 -5.1 22.8
04:05 1024 30.24 853 25.19 -1.6 29.1 77 -5.1 22.8
04:10 1024 30.24 853 25.19 -1.5 29.3 77 -5 23
04:15 1024 30.24 853 25.19 -1.3 29.6 77 -4.9 23.1
04:20 1024 30.24 853 25.19 -1.4 29.6 78 -4.7 23.5
04:25 1024 30.24 853 25.19 -1.3 29.7 77 -4.8 23.3
04:30 1024 30.24 853 25.19 -1.3 29.6 77 -4.9 23.1
04:35 1024 30.24 853 25.19 -1.1 30 76 -4.8 23.3
04:40 1024 30.24 853 25.19 -1 30.1 75 -5 23.1
04:45 1024 30.24 853 25.19 -1 30.2 74 -5 23
04:50 1024 30.24 853 25.19 -1.1 30.1 74 -5.1 22.8
04:55 1024 30.24 853 25.19 -1.1 30.1 73 -5.3 22.4
05:00 1024 30.24 853 25.19 -1 30.2 74 -5.1 22.9
05:05 1024 30.24 853 25.19 -1 30.2 73 -5.3 22.5
05:10 1024 30.24 853 25.19 -1 30.2 72 -5.3 22.4
05:15 1024 30.24 853 25.19 -1.2 29.8 73 -5.4 22.2
05:20 1024 30.24 853 25.19 -1.1 30 72 -5.5 22
05:25 1024 30.24 853 25.19 -1.2 29.9 73 -5.5 22.1
05:30 1024 30.24 853 25.19 -1.3 29.7 73 -5.6 22
05:35 1024 30.24 853 25.19 -1.3 29.7 72 -5.7 21.7
05:40 1024 30.24 853 25.19 -1.1 30 71 -5.7 21.7
05:45 1024 30.24 853 25.19 -1.2 29.9 71 -5.7 21.7
05:50 1024 30.24 853 25.19 -1.4 29.5 73 -5.7 21.8
05:55 1024 30.24 853 25.19 -1.6 29.2 74 -5.7 21.7
06:00 1023 30.21 853 25.19 -1.7 29 73 -5.9 21.4
06:05 1023 30.21 853 25.19 -2 28.4 75 -5.9 21.4
06:10 1023 30.21 853 25.19 -2.4 27.7 76 -6.1 21.1
06:15 1023 30.21 853 25.19 -2.6 27.4 76 -6.2 20.9
06:20 1023 30.21 853 25.19 -2.4 27.7 75 -6.3 20.6
06:25 1024 30.24 853 25.19 -2 28.4 72 -6.4 20.4
06:30 1024 30.24 853 25.19 -1.7 28.9 72 -6.1 21
06:35 1024 30.24 853 25.19 -1.7 28.9 72 -6.2 20.9
06:40 1024 30.24 853 25.19 -1.7 29 71 -6.2 20.9
06:45 1024 30.24 853 25.19 -1.6 29.1 72 -6.1 21.1
06:50 1023 30.21 853 25.19 -1.8 28.8 71 -6.4 20.4
06:55 1023 30.21 853 25.19 -1.7 29 71 -6.3 20.6
07:00 1023 30.21 853 25.19 -2 28.4 72 -6.4 20.5
07:05 1023 30.21 853 25.19 -2.3 27.9 72 -6.6 20.1
07:10 1023 30.21 853 25.19 -2.2 28 73 -6.5 20.2
07:15 1024 30.24 853 25.19 -2.3 27.9 71 -6.8 19.7
07:20 1024 30.24 853 25.19 -2.3 27.9 71 -6.8 19.8
07:25 1024 30.24 853 25.19 -2.5 27.5 73 -6.8 19.8
07:30 1024 30.24 853 25.19 -2.7 27.2 74 -6.8 19.8
07:35 1024 30.24 853 25.19 -2.8 26.9 73 -6.9 19.5
07:40 1024 30.24 853 25.19 -2.9 26.8 73 -7 19.4
07:45 1024 30.24 853 25.19 -2.5 27.5 72 -6.8 19.7
07:50 1024 30.24 853 25.19 -2.5 27.5 72 -6.9 19.6
07:55 1024 30.24 853 25.19 -2.6 27.4 72 -6.9 19.6
08:00 1024 30.24 853 25.19 -2.6 27.3 73 -6.9 19.6
08:05 1024 30.24 853 25.19 -2.7 27.1 73 -6.9 19.5
08:10 1024 30.24 853 25.19 -2.5 27.5 72 -6.9 19.5
08:15 1024 30.24 853 25.19 -2.4 27.7 71 -6.9 19.5
08:20 1024 30.24 853 25.19 -2.5 27.6 71 -7 19.5
08:25 1024 30.24 853 25.19 -2.3 27.9 70 -7.1 19.2
08:30 1024 30.24 853 25.19 -2 28.5 69 -6.9 19.7
08:35 1024 30.24 853 25.19 -1.3 29.7 67 -6.7 19.9
08:40 1024 30.24 853 25.19 -0.7 30.7 65 -6.5 20.4
08:45 1024 30.24 853 25.19 -0.4 31.3 64 -6.4 20.5
08:50 1024 30.24 853 25.19 -0.3 31.4 64 -6.3 20.7
08:55 1024 30.24 853 25.19 -0.5 31.2 65 -6.2 20.8
09:00 1024 30.24 854 25.22 -0.6 30.9 65 -6.5 20.4
09:05 1024 30.24 854 25.22 -0.5 31.2 64 -6.4 20.5
09:10 1025 30.27 854 25.22 -0.3 31.4 63 -6.5 20.2
09:15 1025 30.27 854 25.22 0.6 33.1 60 -6.2 20.8
09:20 1025 30.27 854 25.22 1.4 34.6 57 -6.1 21
09:25 1025 30.27 854 25.22 1.9 35.4 56 -6 21.1
09:30 1025 30.27 854 25.22 2.1 35.7 57 -5.5 22.1
09:35 1025 30.27 854 25.22 1 33.7 60 -5.9 21.4
09:40 1025 30.27 854 25.22 -0.3 31.5 63 -6.5 20.4
09:45 1025 30.27 854 25.22 0.1 32.1 62 -6.3 20.6
09:50 1025 30.27 854 25.22 0.4 32.7 60 -6.5 20.3
09:55 1025 30.27 854 25.22 1.2 34.2 56 -6.5 20.3
10:00 1025 30.27 854 25.22 2.1 35.7 56 -5.9 21.4
10:05 1025 30.27 854 25.22 1.9 35.4 57 -5.9 21.4
10:10 1025 30.27 854 25.22 2 35.7 56 -5.9 21.4
10:15 1025 30.27 854 25.22 2.4 36.4 54 -6 21.2
10:20 1025 30.27 854 25.22 2.4 36.4 55 -5.6 21.9
10:25 1025 30.27 854 25.22 2.9 37.2 54 -5.6 21.9
10:30 1025 30.27 854 25.22 3.7 38.7 50 -5.8 21.6
10:35 1025 30.27 854 25.22 4.1 39.3 50 -5.5 22.1
10:40 1025 30.27 854 25.22 4.1 39.4 49 -5.7 21.7
10:45 1025 30.27 854 25.22 3.8 38.8 50 -5.7 21.8
10:50 1024 30.24 854 25.22 3.8 38.8 48 -6.1 21
10:55 1024 30.24 854 25.22 4.3 39.7 47 -6.1 21.1
11:00 1024 30.24 854 25.22 4.1 39.3 50 -5.5 22.2
11:05 1024 30.24 854 25.22 4.6 40.2 46 -5.9 21.3
11:10 1024 30.24 853 25.19 4.3 39.8 44 -6.8 19.8
11:15 1024 30.24 853 25.19 4.7 40.4 45 -6.4 20.5
11:20 1024 30.24 853 25.19 4.7 40.4 46 -6 21.1
11:25 1024 30.24 853 25.19 4.4 39.9 45 -6.5 20.2
11:30 1024 30.24 853 25.19 5.1 41.2 44 -6 21.1
11:35 1024 30.24 853 25.19 5.2 41.4 42 -6.8 19.8
11:40 1024 30.24 853 25.19 4.9 40.9 41 -7.2 19.1
11:45 1024 30.24 853 25.19 5.2 41.4 40 -7.2 19.1
11:50 1024 30.24 853 25.19 5.6 42.2 40 -7 19.4
11:55 1024 30.24 853 25.19 5.9 42.7 41 -6.4 20.4
12:00 1024 30.24 853 25.19 6.8 44.3 37 -6.8 19.8
12:05 1024 30.24 853 25.19 7.1 44.7 36 -6.9 19.7
12:10 1024 30.24 853 25.19 7.6 45.7 35 -6.9 19.5
12:15 1023 30.21 853 25.19 6.9 44.5 39 -6.1 20.9
12:20 1023 30.21 853 25.19 6.6 43.9 39 -6.4 20.4
12:25 1023 30.21 853 25.19 6.4 43.6 39 -6.4 20.4
12:30 1023 30.21 853 25.19 7 44.6 40 -5.8 21.6
12:35 1023 30.21 853 25.19 6.6 43.8 42 -5.3 22.5
12:40 1023 30.21 853 25.19 6.4 43.4 45 -4.7 23.5
12:45 1023 30.21 853 25.19 5.9 42.7 43 -5.6 21.9
12:50 1023 30.21 853 25.19 6.1 43 44 -5.2 22.7
12:55 1023 30.21 852 25.16 6.9 44.5 40 -5.6 21.9
13:00 1023 30.21 852 25.16 6.8 44.2 42 -5.4 22.3
13:05 1023 30.21 852 25.16 7 44.6 41 -5.3 22.4
13:10 1023 30.21 852 25.16 6.8 44.3 42 -5.1 22.9
13:15 1023 30.21 852 25.16 6.4 43.5 43 -5.4 22.3
13:20 1023 30.21 852 25.16 6.4 43.6 42 -5.6 22
13:25 1023 30.21 852 25.16 6.7 44.1 42 -5.4 22.4
13:30 1023 30.21 852 25.16 7.2 45 40 -5.5 22.2
13:35 1022 30.18 852 25.16 7.9 46.1 39 -5.3 22.5
13:40 1022 30.18 851 25.13 8.5 47.3 39 -4.7 23.5
13:45 1022 30.18 851 25.13 9.2 48.5 37 -4.7 23.5
13:50 1022 30.18 851 25.13 9.9 49.8 32 -6 21.2
13:55 1022 30.18 851 25.13 10.2 50.4 30 -6.8 19.8
14:00 1022 30.18 851 25.13 9.1 48.3 30 -7.5 18.5
14:05 1022 30.18 851 25.13 8.5 47.3 32 -7.4 18.6
14:10 1021 30.15 851 25.13 8.6 47.4 33 -7 19.4
14:15 1021 30.15 850 25.1 9.7 49.4 30 -7.2 19
14:20 1021 30.15 850 25.1 9.7 49.4 31 -6.5 20.2
14:25 1021 30.15 850 25.1 9.8 49.7 31 -6.5 20.3
14:30 1021 30.15 850 25.1 8.1 46.6 36 -6.1 21
14:35 1021 30.15 850 25.1 7.7 45.8 39 -5.6 22
14:40 1021 30.15 850 25.1 7.7 45.8 41 -4.6 23.7
14:45 1021 30.15 850 25.1 8.7 47.7 38 -4.9 23.2
14:50 1021 30.15 850 25.1 9.3 48.7 35 -5.4 22.4
14:55 1021 30.15 850 25.1 9.4 48.8 34 -5.8 21.5
15:00 1021 30.15 850 25.1 9.6 49.2 32 -6.5 20.3
15:05 1021 30.15 850 25.1 9.5 49.1 32 -6.4 20.6
15:10 1021 30.15 850 25.1 9.8 49.6 32 -6.2 20.9
15:15 1021 30.15 850 25.1 9.8 49.6 33 -5.6 21.9
15:20 1021 30.15 850 25.1 8.8 47.9 35 -5.8 21.5
15:25 1021 30.15 850 25.1 8.7 47.7 36 -5.4 22.2
15:30 1021 30.15 850 25.1 8 46.4 39 -5.1 22.8
15:35 1021 30.15 850 25.1 7.5 45.5 39 -5.5 22.2
15:40 1021 30.15 850 25.1 7.1 44.7 39 -5.9 21.3
15:45 1021 30.15 850 25.1 6.9 44.4 41 -5.5 22.1
15:50 1021 30.15 850 25.1 6.4 43.6 41 -6 21.3
15:55 1021 30.15 850 25.1 6.7 44 39 -6.5 20.4
16:00 1021 30.15 850 25.1 7.2 44.9 37 -6.6 20.2
16:05 1020 30.12 850 25.1 7.4 45.2 34 -7.4 18.6
16:10 1020 30.12 850 25.1 7.5 45.5 35 -7.1 19.2
16:15 1020 30.12 849 25.07 7.6 45.7 35 -6.7 19.9
16:20 1020 30.12 849 25.07 7.8 46 35 -6.8 19.7
16:25 1020 30.12 849 25.07 8 46.3 32 -7.7 18.1
16:30 1020 30.12 849 25.07 8.1 46.5 32 -7.7 18.1
16:35 1020 30.12 849 25.07 8.3 46.9 33 -7.1 19.1
16:40 1020 30.12 849 25.07 8.5 47.3 32 -7.3 18.9
16:45 1020 30.12 849 25.07 8.4 47.1 34 -6.6 20.2
16:50 1020 30.12 849 25.07 8.5 47.2 35 -6.2 20.9
16:55 1020 30.12 849 25.07 8.4 47.1 36 -6 21.3
17:00 1020 30.12 849 25.07 8.1 46.5 37 -5.7 21.7
17:05 1020 30.12 849 25.07 8.1 46.6 37 -5.7 21.7
17:10 1020 30.12 849 25.07 8.1 46.6 33 -7 19.4
17:15 1020 30.12 849 25.07 8 46.3 35 -6.7 20
17:20 1019 30.09 849 25.07 7.8 46.1 35 -6.6 20.2
17:25 1019 30.09 849 25.07 7.8 46 36 -6.6 20.2
17:30 1019 30.09 849 25.07 7.9 46.2 37 -6 21.2
17:35 1019 30.09 849 25.07 8.2 46.7 36 -6.2 20.9
17:40 1019 30.09 849 25.07 8.2 46.7 35 -6.2 20.8
17:45 1019 30.09 849 25.07 8.1 46.6 35 -6.3 20.6
17:50 1019 30.09 849 25.07 8.1 46.5 36 -6.1 21
17:55 1019 30.09 848 25.04 8.2 46.8 35 -6.3 20.6
18:00 1019 30.09 848 25.04 8.4 47.1 36 -6 21.2
18:05 1019 30.09 848 25.04 8.4 47.1 35 -6 21.2
18:10 1019 30.09 848 25.04 8.3 47 36 -5.9 21.4
18:15 1019 30.09 848 25.04 8.2 46.8 35 -6.2 20.8
18:20 1019 30.09 848 25.04 7.9 46.3 36 -6.2 20.8
18:25 1019 30.09 848 25.04 7.6 45.6 36 -6.5 20.3
18:30 1019 30.09 848 25.04 7.5 45.5 36 -6.4 20.5
18:35 1019 30.09 848 25.04 7.5 45.4 38 -6.1 21
18:40 1019 30.09 848 25.04 7.7 45.8 35 -6.9 19.6
18:45 1019 30.09 848 25.04 7.8 46.1 33 -7.5 18.6
18:50 1019 30.09 848 25.04 8.1 46.5 36 -5.9 21.3
18:55 1019 30.09 848 25.04 7.9 46.3 34 -7.2 19.1
19:00 1019 30.09 848 25.04 8.3 47 36 -6 21.2
19:05 1019 30.09 849 25.07 8.5 47.3 34 -6.5 20.4
19:10 1019 30.09 849 25.07 8.6 47.5 34 -6.3 20.6
19:15 1019 30.09 849 25.07 8.7 47.6 33 -6.6 20.1
19:20 1019 30.09 848 25.04 8.7 47.7 34 -6.4 20.6
19:25 1019 30.09 848 25.04 8.6 47.6 33 -6.6 20.1
19:30 1019 30.09 848 25.04 8.5 47.3 33 -6.9 19.6
19:35 1019 30.09 848 25.04 8.8 47.8 31 -7.4 18.6
19:40 1019 30.09 848 25.04 8.9 48 31 -7.3 18.9
19:45 1019 30.09 848 25.04 8.9 48 32 -6.9 19.6
19:50 1019 30.09 848 25.04 8.8 47.8 31 -7.3 18.9
19:55 1019 30.09 848 25.04 8.8 47.8 32 -6.8 19.7
20:00 1019 30.09 848 25.04 8.8 47.9 30 -7.7 18.1
20:05 1019 30.09 848 25.04 9 48.3 29 -8.2 17.2
20:10 1019 30.09 848 25.04 9.3 48.7 28 -8.1 17.4
20:15 1019 30.09 848 25.04 9.4 48.8 27 -8.6 16.4
20:20 1019 30.09 848 25.04 9.5 49.1 26 -8.8 16.1
20:25 1019 30.09 848 25.04 9.7 49.5 26 -8.8 16.2
20:30 1019 30.09 848 25.04 9.7 49.4 28 -8.1 17.3
20:35 1019 30.09 848 25.04 9.4 48.8 29 -7.7 18.1
20:40 1019 30.09 848 25.04 8.8 47.8 33 -6.8 19.8
20:45 1019 30.09 848 25.04 8.2 46.7 32 -7.4 18.7
20:50 1019 30.09 848 25.04 8.3 46.9 31 -7.8 18
20:55 1019 30.09 848 25.04 8.6 47.4 29 -8.3 17
21:00 1019 30.09 848 25.04 9.1 48.4 28 -8.5 16.6
21:05 1019 30.09 848 25.04 9.2 48.5 30 -7.6 18.4
21:10 1019 30.09 848 25.04 8.7 47.7 29 -8.2 17.2
21:15 1019 30.09 848 25.04 9.1 48.4 28 -8.7 16.4
21:20 1019 30.09 848 25.04 9.5 49 27 -8.6 16.5
21:25 1019 30.09 848 25.04 9.3 48.7 28 -8.5 16.7
21:30 1019 30.09 848 25.04 9.1 48.4 29 -8.1 17.4
21:35 1019 30.09 848 25.04 8.9 48.1 27 -9.2 15.5
21:40 1019 30.09 848 25.04 9.1 48.5 27 -8.9 15.9
21:45 1019 30.09 848 25.04 9.2 48.6 28 -8.5 16.7
21:50 1019 30.09 848 25.04 8.9 48 30 -7.9 17.8
21:55 1019 30.09 848 25.04 8.7 47.7 31 -7.6 18.4
22:00 1019 30.09 848 25.04 8.4 47.2 30 -8.1 17.4
22:05 1019 30.09 848 25.04 8.5 47.3 30 -7.9 17.8
22:10 1019 30.09 848 25.04 8.5 47.3 30 -8 17.7
22:15 1019 30.09 848 25.04 8.5 47.2 31 -7.8 17.9
22:20 1019 30.09 848 25.04 8.5 47.4 30 -7.9 17.8
22:25 1019 30.09 848 25.04 8.5 47.4 31 -7.5 18.4
22:30 1019 30.09 848 25.04 8.3 47 31 -7.7 18.1
22:35 1019 30.09 848 25.04 8.4 47.1 32 -7.4 18.7
22:40 1019 30.09 848 25.04 8.3 47 31 -7.7 18.2
22:45 1019 30.09 848 25.04 8.3 46.9 32 -7.4 18.7
22:50 1019 30.09 848 25.04 8.2 46.7 33 -7.2 19
22:55 1019 30.09 848 25.04 8 46.4 34 -6.9 19.6
23:00 1019 30.09 848 25.04 7.8 46 36 -6.4 20.4
23:05 1019 30.09 848 25.04 7.4 45.4 38 -6.1 21.1
23:10 1019 30.09 848 25.04 7 44.5 37 -6.6 20.2
23:15 1019 30.09 848 25.04 6.8 44.3 37 -6.9 19.7
23:20 1019 30.09 848 25.04 6.8 44.3 38 -6.7 20
23:25 1019 30.09 848 25.04 6.9 44.4 36 -7 19.3
23:30 1019 30.09 848 25.04 7.1 44.8 35 -7.4 18.7
23:35 1019 30.09 848 25.04 7.5 45.4 34 -7.4 18.7
23:40 1019 30.09 848 25.04 7.7 45.9 34 -7.2 19
23:45 1019 30.09 848 25.04 7.7 45.8 35 -6.9 19.6
23:50 1019 30.09 848 25.04 7.6 45.7 34 -7.3 18.9
23:55 1019 30.09 848 25.04 7.5 45.5 37 -6.4 20.5
24:00 1019 30.09 848 25.04 7.4 45.3 38 -6.1 21